createdAt,value
2022-11-11T00:02:25.974Z,6.82
2022-11-11T00:05:11.356Z,6.84
2022-11-11T00:07:56.925Z,6.90
2022-11-11T00:10:42.336Z,6.95
2022-11-11T00:13:28.557Z,7.01
2022-11-11T00:16:19.182Z,7.07
2022-11-11T00:19:04.138Z,7.15
2022-11-11T00:21:49.281Z,7.20
2022-11-11T00:24:34.351Z,7.25
2022-11-11T00:27:19.421Z,7.33
2022-11-11T00:30:04.602Z,7.38
2022-11-11T00:32:49.832Z,7.43
2022-11-11T00:35:35.225Z,7.48
2022-11-11T00:38:20.362Z,7.53
2022-11-11T00:41:06.154Z,7.57
2022-11-11T00:43:51.229Z,7.62
2022-11-11T00:46:36.661Z,7.67
2022-11-11T00:49:22.251Z,7.71
2022-11-11T00:52:07.529Z,7.73
2022-11-11T00:54:52.576Z,7.75
2022-11-11T00:57:37.954Z,7.77
2022-11-11T01:00:23.141Z,7.79
2022-11-11T01:03:08.416Z,7.81
2022-11-11T01:05:53.610Z,7.82
2022-11-11T01:08:38.657Z,7.83
2022-11-11T01:11:24.802Z,7.85
2022-11-11T01:14:09.792Z,7.86
2022-11-11T01:16:55.112Z,7.87
2022-11-11T01:19:40.319Z,7.88
2022-11-11T01:22:25.290Z,7.87
2022-11-11T01:25:10.555Z,7.89
2022-11-11T01:27:55.877Z,7.88
2022-11-11T01:30:40.914Z,7.87
2022-11-11T01:33:26.191Z,7.88
2022-11-11T01:36:14.827Z,7.88
2022-11-11T01:39:01.527Z,7.88
2022-11-11T01:41:46.640Z,7.87
2022-11-11T01:44:45.140Z,7.87
2022-11-11T01:47:31.166Z,7.86
2022-11-11T01:50:16.521Z,7.86
2022-11-11T01:53:01.653Z,7.85
2022-11-11T01:55:47.279Z,7.85
2022-11-11T01:58:32.578Z,7.85
2022-11-11T02:01:18.244Z,7.85
2022-11-11T02:04:05.632Z,7.86
2022-11-11T02:06:54.507Z,7.86
2022-11-11T02:09:43.581Z,7.86
2022-11-11T02:12:29.003Z,7.85
2022-11-11T02:15:14.623Z,7.86
2022-11-11T02:18:00.090Z,7.84
2022-11-11T02:20:49.060Z,7.83
2022-11-11T02:23:44.640Z,7.82
2022-11-11T02:26:33.419Z,7.82
2022-11-11T02:29:21.300Z,7.81
2022-11-11T02:32:06.709Z,7.81
2022-11-11T02:34:52.338Z,7.80
2022-11-11T02:37:37.411Z,7.79
2022-11-11T02:40:43.086Z,7.76
2022-11-11T02:43:29.266Z,7.75
2022-11-11T02:46:14.692Z,7.73
2022-11-11T02:48:59.975Z,7.71
2022-11-11T02:51:44.830Z,7.68
2022-11-11T02:54:30.090Z,7.63
2022-11-11T02:57:16.056Z,7.62
2022-11-11T03:00:01.414Z,7.56
2022-11-11T03:02:46.745Z,7.53
2022-11-11T03:05:32.345Z,7.48
2022-11-11T03:08:17.985Z,7.43
2022-11-11T03:11:03.133Z,7.39
2022-11-11T03:13:48.673Z,7.37
2022-11-11T03:16:34.523Z,7.34
2022-11-11T03:19:20.154Z,7.34
2022-11-11T03:25:10.757Z,7.33
2022-11-11T03:27:55.953Z,7.34
2022-11-11T03:30:43.799Z,7.36
2022-11-11T03:33:29.119Z,7.36
2022-11-11T03:36:14.679Z,7.38
2022-11-11T03:38:59.819Z,7.40
2022-11-11T03:41:45.291Z,7.40
2022-11-11T03:44:30.793Z,7.40
2022-11-11T03:47:15.630Z,7.39
2022-11-11T03:50:00.421Z,7.41
2022-11-11T03:52:45.705Z,7.41
2022-11-11T03:55:30.858Z,7.41
2022-11-11T03:58:16.908Z,7.42
2022-11-11T04:01:02.050Z,7.42
2022-11-11T04:03:47.129Z,7.42
2022-11-11T04:06:33.196Z,7.42
2022-11-11T04:09:18.701Z,7.42
2022-11-11T04:12:03.641Z,7.42
2022-11-11T04:14:48.678Z,7.41
2022-11-11T04:17:34.124Z,7.39
2022-11-11T04:20:19.710Z,7.37
2022-11-11T04:23:04.506Z,7.35
2022-11-11T04:25:49.813Z,7.34
2022-11-11T04:28:35.090Z,7.31
2022-11-11T04:31:20.398Z,7.31
2022-11-11T04:34:05.552Z,7.27
2022-11-11T04:36:50.837Z,7.25
2022-11-11T04:39:36.174Z,7.22
2022-11-11T04:42:21.792Z,7.20
2022-11-11T04:45:10.849Z,7.15
2022-11-11T04:48:06.878Z,7.13
2022-11-11T04:50:52.404Z,7.13
2022-11-11T04:53:37.663Z,7.09
2022-11-11T04:56:22.508Z,7.06
2022-11-11T04:59:07.507Z,7.05
2022-11-11T05:01:52.642Z,7.03
2022-11-11T05:04:37.804Z,7.01
2022-11-11T05:07:22.855Z,6.99
2022-11-11T05:10:08.154Z,6.99
2022-11-11T05:12:53.154Z,6.98
2022-11-11T05:15:37.909Z,6.99
2022-11-11T05:18:22.993Z,7.02
2022-11-11T05:21:15.187Z,7.03
2022-11-11T05:24:00.347Z,7.05
2022-11-11T05:26:45.291Z,7.06
2022-11-11T05:29:30.259Z,7.08
2022-11-11T05:32:19.072Z,7.09
2022-11-11T05:35:04.998Z,7.12
2022-11-11T05:37:50.253Z,7.12
2022-11-11T05:40:35.520Z,7.14
2022-11-11T05:43:20.788Z,7.14
2022-11-11T05:46:05.886Z,7.15
2022-11-11T05:48:51.057Z,7.17
2022-11-11T05:51:39.086Z,7.15
2022-11-11T05:54:24.585Z,7.15
2022-11-11T05:57:11.540Z,7.14
2022-11-11T05:59:56.218Z,7.16
2022-11-11T06:02:41.157Z,7.18
2022-11-11T06:05:26.003Z,7.19
2022-11-11T06:08:11.053Z,7.21
2022-11-11T06:10:56.199Z,7.22
2022-11-11T06:13:41.352Z,7.23
2022-11-11T06:16:26.507Z,7.25
2022-11-11T06:19:11.545Z,7.24
2022-11-11T06:21:56.826Z,7.25
2022-11-11T06:24:41.901Z,7.23
2022-11-11T06:27:27.109Z,7.22
2022-11-11T06:33:17.767Z,7.17
2022-11-11T06:36:03.105Z,7.16
2022-11-11T06:38:48.705Z,7.15
2022-11-11T06:41:33.913Z,7.13
2022-11-11T06:44:19.504Z,7.13
2022-11-11T06:47:04.706Z,7.12
2022-11-11T06:49:49.709Z,7.12
2022-11-11T06:52:34.608Z,7.12
2022-11-11T06:55:19.816Z,7.14
2022-11-11T06:58:13.592Z,7.15
2022-11-11T07:00:58.863Z,7.18
2022-11-11T07:03:44.005Z,7.18
2022-11-11T07:06:29.137Z,7.22
2022-11-11T07:09:14.234Z,7.25
2022-11-11T07:11:59.142Z,7.28
2022-11-11T07:14:44.141Z,7.32
2022-11-11T07:17:28.994Z,7.33
2022-11-11T07:20:14.253Z,7.36
2022-11-11T07:22:59.141Z,7.38
2022-11-11T07:25:44.203Z,7.39
2022-11-11T07:28:29.792Z,7.39
2022-11-11T07:31:14.688Z,7.41
2022-11-11T07:33:59.606Z,7.43
2022-11-11T07:36:44.351Z,7.45
2022-11-11T07:39:29.787Z,7.50
2022-11-11T07:42:30.232Z,7.56
2022-11-11T07:45:16.070Z,7.63
2022-11-11T07:48:00.879Z,7.72
2022-11-11T07:50:46.017Z,7.81
2022-11-11T07:53:31.459Z,7.91
2022-11-11T07:56:16.867Z,8.01
2022-11-11T07:59:02.308Z,8.13
2022-11-11T08:01:47.070Z,8.25
2022-11-11T08:04:31.947Z,8.37
2022-11-11T08:07:22.561Z,8.48
2022-11-11T08:10:09.290Z,8.59
2022-11-11T08:12:54.934Z,8.71
2022-11-11T08:15:40.151Z,8.80
2022-11-11T08:18:25.384Z,8.88
2022-11-11T08:21:10.857Z,8.97
2022-11-11T08:27:01.188Z,9.16
2022-11-11T08:29:46.090Z,9.24
2022-11-11T08:32:30.951Z,9.33
2022-11-11T08:35:16.361Z,9.41
2022-11-11T08:38:03.023Z,9.48
2022-11-11T08:40:47.876Z,9.57
2022-11-11T08:43:37.202Z,9.65
2022-11-11T08:46:23.829Z,9.70
2022-11-11T08:49:09.171Z,9.76
2022-11-11T08:51:54.081Z,9.84
2022-11-11T08:54:39.165Z,9.89
2022-11-11T08:57:24.430Z,9.96
2022-11-11T09:00:10.805Z,10.04
2022-11-11T09:03:00.050Z,10.12
2022-11-11T09:05:45.247Z,10.20
2022-11-11T09:08:30.443Z,10.28
2022-11-11T09:11:15.665Z,10.34
2022-11-11T09:14:00.651Z,10.44
2022-11-11T09:16:45.476Z,10.55
2022-11-11T09:19:30.336Z,10.62
2022-11-11T09:22:15.232Z,10.70
2022-11-11T09:25:00.402Z,10.80
2022-11-11T09:27:54.125Z,10.92
2022-11-11T09:30:39.102Z,11.03
2022-11-11T09:33:24.445Z,11.16
2022-11-11T09:36:09.679Z,11.26
2022-11-11T09:38:54.677Z,11.38
2022-11-11T09:42:01.098Z,11.48
2022-11-11T09:45:10.399Z,11.60
2022-11-11T09:48:10.534Z,11.75
2022-11-11T09:51:01.010Z,11.89
2022-11-11T09:54:01.530Z,12.03
2022-11-11T09:56:47.229Z,12.15
2022-11-11T09:59:45.540Z,12.24
2022-11-11T10:02:40.165Z,12.34
2022-11-11T10:05:32.608Z,12.41
2022-11-11T10:08:24.975Z,12.48
2022-11-11T10:11:25.589Z,12.56
2022-11-11T10:14:11.066Z,12.64
2022-11-11T10:17:11.684Z,12.70
2022-11-11T10:20:02.483Z,12.76
2022-11-11T10:22:51.520Z,12.83
2022-11-11T10:25:40.445Z,12.95
2022-11-11T10:28:29.812Z,13.06
2022-11-11T10:31:18.715Z,13.17
2022-11-11T10:34:12.069Z,13.24
2022-11-11T10:36:57.628Z,13.34
2022-11-11T10:40:12.571Z,13.41
2022-11-11T10:42:57.306Z,13.51
2022-11-11T10:45:50.933Z,13.61
2022-11-11T10:49:06.211Z,13.71
2022-11-11T10:52:07.773Z,13.82
2022-11-11T10:55:01.273Z,13.92
2022-11-11T10:57:55.604Z,14.02
2022-11-11T11:00:44.250Z,14.12
2022-11-11T11:03:38.026Z,14.19
2022-11-11T11:06:31.517Z,14.28
2022-11-11T11:09:22.224Z,14.34
2022-11-11T11:12:30.478Z,14.38
2022-11-11T11:15:20.569Z,14.46
2022-11-11T11:18:09.101Z,14.50
2022-11-11T11:21:00.444Z,14.56
2022-11-11T11:23:46.935Z,14.61
2022-11-11T11:26:46.832Z,14.64
2022-11-11T11:29:40.566Z,14.69
2022-11-11T11:32:32.697Z,14.78
2022-11-11T11:35:39.095Z,14.83
2022-11-11T11:38:50.115Z,14.94
2022-11-11T11:41:44.901Z,15.02
2022-11-11T11:44:32.664Z,15.10
2022-11-11T11:47:40.038Z,15.14
2022-11-11T11:50:38.707Z,15.18
2022-11-11T11:54:14.695Z,15.23
2022-11-11T11:57:04.432Z,15.26
2022-11-11T12:00:00.387Z,15.28
2022-11-11T12:03:12.597Z,15.26
2022-11-11T12:06:25.323Z,15.23
2022-11-11T12:09:30.175Z,15.22
2022-11-11T12:12:24.740Z,15.21
2022-11-11T12:15:31.305Z,15.21
2022-11-11T12:18:40.344Z,15.22
2022-11-11T12:21:48.520Z,15.23
2022-11-11T12:24:57.311Z,15.20
2022-11-11T12:28:04.429Z,15.22
2022-11-11T12:30:55.269Z,15.25
2022-11-11T12:33:58.505Z,15.28
2022-11-11T12:36:46.588Z,15.32
2022-11-11T12:40:01.849Z,15.38
2022-11-11T12:42:53.625Z,15.45
2022-11-11T12:45:45.863Z,15.50
2022-11-11T12:48:38.361Z,15.55
2022-11-11T12:51:38.621Z,15.62
2022-11-11T12:54:48.708Z,15.68
2022-11-11T12:57:39.489Z,15.71
2022-11-11T13:00:26.244Z,15.75
2022-11-11T13:03:25.269Z,15.74
2022-11-11T13:06:22.055Z,15.78
2022-11-11T13:09:37.581Z,15.77
2022-11-11T13:12:31.897Z,15.76
2022-11-11T13:15:18.581Z,15.74
2022-11-11T13:18:14.259Z,15.66
2022-11-11T13:21:13.994Z,15.60
2022-11-11T13:23:59.265Z,15.56
2022-11-11T13:26:50.068Z,15.49
2022-11-11T13:29:44.203Z,15.42
2022-11-11T13:32:40.020Z,15.37
2022-11-11T13:35:36.519Z,15.30
2022-11-11T13:38:37.608Z,15.22
2022-11-11T13:41:32.301Z,15.17
2022-11-11T13:44:24.926Z,15.11
2022-11-11T13:47:19.201Z,15.06
2022-11-11T13:50:14.905Z,15.01
2022-11-11T13:53:07.638Z,14.98
2022-11-11T13:55:54.274Z,14.95
2022-11-11T13:58:47.667Z,14.90
2022-11-11T14:01:42.381Z,14.89
2022-11-11T14:04:27.957Z,14.85
2022-11-11T14:07:44.843Z,14.80
2022-11-11T14:10:35.802Z,14.80
2022-11-11T14:13:23.817Z,14.79
2022-11-11T14:16:11.330Z,14.80
2022-11-11T14:18:56.560Z,14.79
2022-11-11T14:21:58.634Z,14.77
2022-11-11T14:24:46.922Z,14.77
2022-11-11T14:27:34.229Z,14.77
2022-11-11T14:30:40.153Z,14.72
2022-11-11T14:33:51.407Z,14.69
2022-11-11T14:36:53.175Z,14.68
2022-11-11T14:39:47.286Z,14.66
2022-11-11T14:42:35.509Z,14.62
2022-11-11T14:45:24.075Z,14.58
2022-11-11T14:48:55.096Z,14.50
2022-11-11T14:51:47.815Z,14.46
2022-11-11T14:54:42.026Z,14.43
2022-11-11T14:57:32.237Z,14.38
2022-11-11T15:00:23.769Z,14.35
2022-11-11T15:03:27.387Z,14.29
2022-11-11T15:06:23.486Z,14.24
2022-11-11T15:09:52.139Z,14.15
2022-11-11T15:13:14.468Z,14.10
2022-11-11T15:16:21.208Z,14.02
2022-11-11T15:19:36.987Z,13.93
2022-11-11T15:22:59.028Z,13.85
2022-11-11T15:26:07.527Z,13.74
2022-11-11T15:29:22.911Z,13.64
2022-11-11T15:32:22.660Z,13.54
2022-11-11T15:35:24.209Z,13.41
2022-11-11T15:38:12.736Z,13.32
2022-11-11T15:41:00.485Z,13.21
2022-11-11T15:43:45.514Z,13.11
2022-11-11T15:46:35.336Z,13.01
2022-11-11T15:49:38.748Z,12.87
2022-11-11T15:52:23.739Z,12.78
2022-11-11T15:55:22.958Z,12.67
2022-11-11T15:58:29.957Z,12.55
2022-11-11T16:01:16.500Z,12.46
2022-11-11T16:04:01.963Z,12.36
2022-11-11T16:06:47.786Z,12.27
2022-11-11T16:09:32.892Z,12.17
2022-11-11T16:12:27.191Z,12.06
2022-11-11T16:15:39.578Z,11.95
2022-11-11T16:18:27.394Z,11.85
2022-11-11T16:21:18.825Z,11.76
2022-11-11T16:24:09.519Z,11.67
2022-11-11T16:26:55.650Z,11.57
2022-11-11T16:29:41.339Z,11.49
2022-11-11T16:32:26.165Z,11.39
2022-11-11T16:35:36.881Z,11.30
2022-11-11T16:38:34.765Z,11.19
2022-11-11T16:41:27.999Z,11.12
2022-11-11T16:44:37.849Z,11.00
2022-11-11T16:47:29.030Z,10.91
2022-11-11T16:50:23.155Z,10.82
2022-11-11T16:53:24.994Z,10.75
2022-11-11T16:56:25.306Z,10.66
2022-11-11T16:59:19.416Z,10.60
2022-11-11T17:02:21.274Z,10.55
2022-11-11T17:05:07.162Z,10.48
2022-11-11T17:07:52.380Z,10.44
2022-11-11T17:10:40.378Z,10.39
2022-11-11T17:13:27.216Z,10.35
2022-11-11T17:16:13.956Z,10.31
2022-11-11T17:19:03.458Z,10.27
2022-11-11T17:21:48.919Z,10.24
2022-11-11T17:24:34.388Z,10.20
2022-11-11T17:27:19.555Z,10.16
2022-11-11T17:30:05.467Z,10.11
2022-11-11T17:32:50.315Z,10.07
2022-11-11T17:35:35.197Z,10.02
2022-11-11T17:38:20.354Z,9.99
2022-11-11T17:41:06.179Z,9.95
2022-11-11T17:43:51.538Z,9.92
2022-11-11T17:46:36.377Z,9.89
2022-11-11T17:49:42.418Z,9.86
2022-11-11T17:52:27.253Z,9.83
2022-11-11T17:55:12.100Z,9.80
2022-11-11T17:57:59.086Z,9.76
2022-11-11T18:00:44.043Z,9.72
2022-11-11T18:03:28.974Z,9.69
2022-11-11T18:06:13.836Z,9.66
2022-11-11T18:08:59.340Z,9.62
2022-11-11T18:11:44.268Z,9.59
2022-11-11T18:14:29.274Z,9.57
2022-11-11T18:17:14.510Z,9.55
2022-11-11T18:19:59.470Z,9.51
2022-11-11T18:22:44.341Z,9.48
2022-11-11T18:25:29.218Z,9.44
2022-11-11T18:28:14.148Z,9.40
2022-11-11T18:31:10.254Z,9.35
2022-11-11T18:33:55.488Z,9.32
2022-11-11T18:36:40.373Z,9.31
2022-11-11T18:39:25.626Z,9.27
2022-11-11T18:42:10.457Z,9.27
2022-11-11T18:44:55.377Z,9.26
2022-11-11T18:47:40.445Z,9.27
2022-11-11T18:50:25.577Z,9.27
2022-11-11T18:53:10.811Z,9.25
2022-11-11T18:55:55.735Z,9.24
2022-11-11T18:58:40.986Z,9.22
2022-11-11T19:01:28.923Z,9.20
2022-11-11T19:04:14.221Z,9.17
2022-11-11T19:06:59.059Z,9.14
2022-11-11T19:09:44.560Z,9.12
2022-11-11T19:12:29.350Z,9.08
2022-11-11T19:15:14.549Z,9.06
2022-11-11T19:17:59.754Z,9.03
2022-11-11T19:20:45.227Z,9.00
2022-11-11T19:23:30.192Z,8.97
2022-11-11T19:26:16.034Z,8.96
2022-11-11T19:29:02.295Z,8.93
2022-11-11T19:31:47.215Z,8.90
2022-11-11T19:34:32.247Z,8.89
2022-11-11T19:37:17.315Z,8.87
2022-11-11T19:40:02.591Z,8.85
2022-11-11T19:42:48.852Z,8.83
2022-11-11T19:45:36.858Z,8.81
2022-11-11T19:48:22.109Z,8.80
2022-11-11T19:51:12.197Z,8.78
2022-11-11T19:53:57.537Z,8.76
2022-11-11T19:56:42.931Z,8.73
2022-11-11T19:59:28.014Z,8.70
2022-11-11T20:02:13.187Z,8.67
2022-11-11T20:04:58.627Z,8.65
2022-11-11T20:07:43.654Z,8.60
2022-11-11T20:10:28.922Z,8.58
2022-11-11T20:13:13.766Z,8.55
2022-11-11T20:16:02.381Z,8.51
2022-11-11T20:18:47.407Z,8.49
2022-11-11T20:21:32.477Z,8.48
2022-11-11T20:24:17.775Z,8.45
2022-11-11T20:27:03.034Z,8.45
2022-11-11T20:29:47.939Z,8.43
2022-11-11T20:32:32.849Z,8.43
2022-11-11T20:35:17.896Z,8.43
2022-11-11T20:38:03.284Z,8.41
2022-11-11T20:40:48.202Z,8.39
2022-11-11T20:43:35.168Z,8.36
2022-11-11T20:46:20.650Z,8.32
2022-11-11T20:49:05.667Z,8.29
2022-11-11T20:51:50.725Z,8.26
2022-11-11T20:54:35.835Z,8.23
2022-11-11T20:57:21.105Z,8.19
2022-11-11T21:00:06.437Z,8.17
2022-11-11T21:02:51.354Z,8.11
2022-11-11T21:05:36.241Z,8.06
2022-11-11T21:08:31.450Z,8.01
2022-11-11T21:11:19.737Z,7.96
2022-11-11T21:14:05.060Z,7.90
2022-11-11T21:16:50.538Z,7.88
2022-11-11T21:19:35.432Z,7.84
2022-11-11T21:22:20.488Z,7.80
2022-11-11T21:25:06.066Z,7.77
2022-11-11T21:27:51.054Z,7.73
2022-11-11T21:30:35.785Z,7.70
2022-11-11T21:33:20.780Z,7.69
2022-11-11T21:36:11.904Z,7.67
2022-11-11T21:38:57.422Z,7.66
2022-11-11T21:41:42.351Z,7.67
2022-11-11T21:44:27.350Z,7.70
2022-11-11T21:47:12.251Z,7.69
2022-11-11T21:49:57.360Z,7.70
2022-11-11T21:52:42.287Z,7.70
2022-11-11T21:55:27.831Z,7.69
2022-11-11T21:58:12.555Z,7.68
2022-11-11T22:01:07.401Z,7.64
2022-11-11T22:03:54.870Z,7.62
2022-11-11T22:06:40.361Z,7.54
2022-11-11T22:09:25.803Z,7.57
2022-11-11T22:12:10.974Z,7.55
2022-11-11T22:14:55.769Z,7.53
2022-11-11T22:17:40.645Z,7.50
2022-11-11T22:20:25.806Z,7.48
2022-11-11T22:23:11.009Z,7.45
2022-11-11T22:26:03.881Z,7.43
2022-11-11T22:28:53.886Z,7.42
2022-11-11T22:31:40.355Z,7.41
2022-11-11T22:34:25.180Z,7.40
2022-11-11T22:37:10.238Z,7.39
2022-11-11T22:39:55.406Z,7.39
2022-11-11T22:42:40.221Z,7.37
2022-11-11T22:45:25.157Z,7.38
2022-11-11T22:48:10.369Z,7.35
2022-11-11T22:51:12.885Z,7.35
2022-11-11T22:54:03.610Z,7.31
2022-11-11T22:56:48.898Z,7.30
2022-11-11T22:59:33.931Z,7.29
2022-11-11T23:02:19.208Z,7.26
2022-11-11T23:05:04.415Z,7.25
2022-11-11T23:07:50.060Z,7.23
2022-11-11T23:10:35.120Z,7.21
2022-11-11T23:13:20.862Z,7.20
2022-11-11T23:16:07.991Z,7.15
2022-11-11T23:18:53.258Z,7.11
2022-11-11T23:21:38.524Z,7.06
2022-11-11T23:24:23.480Z,7.02
2022-11-11T23:27:08.611Z,6.96
2022-11-11T23:29:53.934Z,6.90
2022-11-11T23:32:39.507Z,6.85
2022-11-11T23:35:24.718Z,6.80
2022-11-11T23:38:09.639Z,6.76
2022-11-11T23:40:54.586Z,6.72
2022-11-11T23:43:39.736Z,6.68
2022-11-11T23:46:25.017Z,6.64
2022-11-11T23:49:10.505Z,6.60
2022-11-11T23:51:56.012Z,6.56
2022-11-11T23:54:40.994Z,6.52
2022-11-11T23:57:26.317Z,6.49
